Time;durP1;ratioP1;P1;durP2;ratioP2;P2;SDS_P1;SDS_P2;PMS_P1;PMS_P2;Temp;Humidity;BMP_temperature;BMP_pressure;BME280_temperature;BME280_humidity;BME280_pressure;Samples;Min_cycle;Max_cycle;Signal;HPM_P1;HPM_P2
2021/06/23 00:00:47;;;;;;;12.53;11.73;;;17.80;99.90;;;;;;4961267;23;20237;-77
2021/06/23 00:03:15;;;;;;;12.17;11.37;;;17.80;99.90;;;;;;4937231;29;20196;-78
2021/06/23 00:05:42;;;;;;;12.03;11.33;;;17.80;99.90;;;;;;4936903;29;20564;-78
2021/06/23 00:08:09;;;;;;;12.20;11.50;;;17.70;99.90;;;;;;4935896;29;20683;-78
2021/06/23 00:10:36;;;;;;;11.60;10.90;;;17.70;99.90;;;;;;4931378;29;20226;-78
2021/06/23 00:13:05;;;;;;;11.60;10.90;;;17.60;99.90;;;;;;4928758;29;20595;-78
2021/06/23 00:15:33;;;;;;;12.07;11.27;;;17.60;99.90;;;;;;4919504;29;20220;-78
2021/06/23 00:17:59;;;;;;;11.33;10.63;;;17.60;99.90;;;;;;4921294;29;20211;-78
2021/06/23 00:20:28;;;;;;;12.07;11.27;;;17.50;99.90;;;;;;4919124;29;20230;-78
2021/06/23 00:22:55;;;;;;;12.00;11.20;;;17.50;99.90;;;;;;4927826;29;20211;-78
2021/06/23 00:25:22;;;;;;;12.30;11.50;;;17.50;99.90;;;;;;4926665;29;20205;-78
2021/06/23 00:27:49;;;;;;;11.77;10.90;;;17.50;99.90;;;;;;4928690;29;20624;-77
2021/06/23 00:30:17;;;;;;;12.03;11.13;;;17.50;99.90;;;;;;4929189;29;20233;-78
2021/06/23 00:32:45;;;;;;;12.10;11.30;;;17.50;99.90;;;;;;4930619;29;20199;-78
2021/06/23 00:35:13;;;;;;;11.97;11.27;;;17.60;99.90;;;;;;4926326;29;20614;-78
2021/06/23 00:37:42;;;;;;;12.40;11.60;;;17.50;99.90;;;;;;4917864;29;20670;-77
2021/06/23 00:40:10;;;;;;;13.43;12.20;;;17.50;99.90;;;;;;4919013;29;20220;-78
2021/06/23 00:42:38;;;;;;;12.73;11.73;;;17.50;99.90;;;;;;4927022;29;20202;-78
2021/06/23 00:45:07;;;;;;;12.87;11.87;;;17.50;99.90;;;;;;4929287;29;20197;-78
2021/06/23 00:47:34;;;;;;;12.53;11.73;;;17.60;99.90;;;;;;4930058;29;20209;-77
2021/06/23 00:50:06;;;;;;;13.17;12.00;;;17.60;99.90;;;;;;4923657;29;20225;-78
2021/06/23 00:52:59;;;;;;;12.30;11.50;;;17.60;99.90;;;;;;4919848;29;20291;-78
2021/06/23 00:55:34;;;;;;;12.30;11.50;;;17.60;99.90;;;;;;4925809;29;20213;-78
2021/06/23 00:58:02;;;;;;;12.47;11.67;;;17.60;99.90;;;;;;4917476;29;20565;-78
2021/06/23 01:00:32;;;;;;;12.00;11.30;;;17.50;99.90;;;;;;4921654;29;20229;-78
2021/06/23 01:03:04;;;;;;;12.57;11.67;;;17.50;99.90;;;;;;4912240;29;20256;-78
2021/06/23 01:05:34;;;;;;;12.87;11.97;;;17.50;99.90;;;;;;4910846;29;20197;-78
2021/06/23 01:08:06;;;;;;;12.00;11.30;;;17.40;99.90;;;;;;4916473;29;20201;-78
2021/06/23 01:10:34;;;;;;;13.37;12.37;;;17.50;99.90;;;;;;4924348;29;20238;-78
2021/06/23 01:13:36;;;;;;;12.80;12.00;;;17.50;99.90;;;;;;4922740;29;20198;-78
2021/06/23 01:16:07;;;;;;;12.47;11.67;;;17.50;99.90;;;;;;4911712;29;20229;-78
2021/06/23 01:18:36;;;;;;;12.70;11.90;;;17.50;99.90;;;;;;4926245;29;20199;-79
2021/06/23 01:21:04;;;;;;;12.50;11.70;;;17.50;99.90;;;;;;4917534;29;20276;-78
2021/06/23 01:23:33;;;;;;;12.83;11.83;;;17.50;99.90;;;;;;4923204;29;20609;-78
2021/06/23 01:25:59;;;;;;;13.13;12.23;;;17.60;99.90;;;;;;4924263;29;20198;-78
2021/06/23 01:28:27;;;;;;;12.83;11.93;;;17.60;99.90;;;;;;4926921;29;20565;-79
2021/06/23 01:31:22;;;;;;;12.90;12.00;;;17.60;99.90;;;;;;4926052;29;20241;-78
2021/06/23 01:33:52;;;;;;;13.20;12.30;;;17.60;99.90;;;;;;4918262;29;20195;-78
2021/06/23 01:36:21;;;;;;;12.20;11.50;;;17.60;99.90;;;;;;4920466;29;20605;-78
2021/06/23 01:38:51;;;;;;;12.37;11.57;;;17.60;99.90;;;;;;4926008;29;20284;-78
2021/06/23 01:41:18;;;;;;;11.47;10.77;;;17.50;99.90;;;;;;4923008;29;20204;-78
2021/06/23 01:43:46;;;;;;;11.10;10.40;;;17.40;99.90;;;;;;4925545;29;20278;-79
2021/06/23 01:46:13;;;;;;;11.70;10.90;;;17.40;99.90;;;;;;4915183;29;20254;-78
2021/06/23 01:48:39;;;;;;;11.00;10.13;;;17.40;99.90;;;;;;4926534;29;20211;-79
2021/06/23 01:51:07;;;;;;;11.27;10.57;;;17.30;99.90;;;;;;4925342;29;20230;-79
2021/06/23 01:53:41;;;;;;;11.53;10.60;;;17.30;99.90;;;;;;4916391;29;20208;-78
2021/06/23 01:56:09;;;;;;;11.10;10.30;;;17.30;99.90;;;;;;4926316;29;20213;-79
2021/06/23 01:58:39;;;;;;;10.90;10.17;;;17.20;99.90;;;;;;4898713;29;20746;-79
2021/06/23 02:01:18;;;;;;;10.83;10.13;;;17.20;99.90;;;;;;4919674;29;20273;-79
2021/06/23 02:04:00;;;;;;;10.87;10.17;;;17.20;99.90;;;;;;4917936;29;20731;-78
2021/06/23 02:06:43;;;;;;;10.50;9.90;;;17.10;99.90;;;;;;4922451;29;20207;-78
2021/06/23 02:09:28;;;;;;;11.27;10.50;;;17.20;99.90;;;;;;4920386;29;20222;-79
2021/06/23 02:12:27;;;;;;;10.90;10.27;;;17.10;99.90;;;;;;4923714;29;20260;-78
2021/06/23 02:15:06;;;;;;;11.07;10.47;;;17.10;99.90;;;;;;4917718;29;20213;-79
2021/06/23 02:17:54;;;;;;;11.40;10.50;;;17.10;99.90;;;;;;4922666;29;20239;-78
2021/06/23 02:20:35;;;;;;;11.63;10.93;;;17.00;99.90;;;;;;4923275;29;20229;-78
2021/06/23 02:23:12;;;;;;;11.03;10.33;;;17.00;99.90;;;;;;4923121;29;20227;-78
2021/06/23 02:25:41;;;;;;;11.60;10.80;;;17.00;99.90;;;;;;4927878;29;20690;-78
2021/06/23 02:28:20;;;;;;;12.50;11.77;;;17.00;99.90;;;;;;4926367;29;20203;-79
2021/06/23 02:30:49;;;;;;;11.67;10.97;;;16.90;99.90;;;;;;4907214;29;20219;-79
2021/06/23 02:33:18;;;;;;;10.97;10.37;;;16.90;99.90;;;;;;4898859;29;20229;-79
2021/06/23 02:35:50;;;;;;;11.27;10.57;;;16.80;99.90;;;;;;4923881;29;20205;-77
2021/06/23 02:38:56;;;;;;;11.23;10.50;;;16.80;99.90;;;;;;4922111;29;20244;-77
2021/06/23 02:41:24;;;;;;;11.80;11.10;;;16.70;99.90;;;;;;4929203;29;20256;-81
2021/06/23 02:43:55;;;;;;;10.60;10.00;;;16.60;99.90;;;;;;4922218;29;20192;-80
2021/06/23 02:46:27;;;;;;;11.70;10.80;;;16.60;99.90;;;;;;4918873;29;20714;-78
2021/06/23 02:49:01;;;;;;;10.93;10.33;;;16.60;99.90;;;;;;4917059;29;20735;-77
2021/06/23 02:51:39;;;;;;;11.10;10.40;;;16.50;99.90;;;;;;4920042;29;20670;-77
2021/06/23 02:54:08;;;;;;;12.10;11.40;;;16.40;99.90;;;;;;4914675;29;20303;-78
2021/06/23 02:56:50;;;;;;;11.10;10.50;;;16.40;99.90;;;;;;4921916;29;20235;-77
2021/06/23 02:59:19;;;;;;;10.30;9.70;;;16.40;99.90;;;;;;4926242;29;20235;-76
2021/06/23 03:01:50;;;;;;;12.10;11.40;;;16.30;99.90;;;;;;4917079;29;20251;-77
2021/06/23 03:04:22;;;;;;;10.77;10.17;;;16.30;99.90;;;;;;4922022;29;20194;-78
2021/06/23 03:07:22;;;;;;;11.00;10.30;;;16.30;99.90;;;;;;4921778;29;20920;-78
2021/06/23 03:10:04;;;;;;;11.20;10.50;;;16.20;99.90;;;;;;4921614;29;20219;-78
2021/06/23 03:12:50;;;;;;;11.90;11.30;;;16.20;99.90;;;;;;4923274;29;20738;-78
2021/06/23 03:15:38;;;;;;;12.00;11.30;;;16.20;99.90;;;;;;4922541;29;20247;-78
2021/06/23 03:18:32;;;;;;;11.67;10.97;;;16.10;99.90;;;;;;4929341;29;20210;-80
2021/06/23 03:21:03;;;;;;;12.17;11.37;;;16.10;99.90;;;;;;4921903;29;20706;-77
2021/06/23 03:23:32;;;;;;;11.83;11.13;;;16.00;99.90;;;;;;4932430;29;20301;-78
2021/06/23 03:26:00;;;;;;;12.30;11.40;;;16.00;99.90;;;;;;4922558;29;20206;-78
2021/06/23 03:28:27;;;;;;;11.60;11.00;;;16.00;99.90;;;;;;4919575;29;20207;-78
2021/06/23 03:30:59;;;;;;;11.43;10.83;;;15.90;99.90;;;;;;4927120;29;20223;-78
2021/06/23 03:33:28;;;;;;;11.57;10.87;;;15.90;99.90;;;;;;4921516;29;20203;-78
2021/06/23 03:36:21;;;;;;;11.67;10.97;;;15.90;99.90;;;;;;4925427;29;20279;-77
2021/06/23 03:38:50;;;;;;;12.70;11.73;;;15.90;99.90;;;;;;4922770;29;20219;-77
2021/06/23 03:41:17;;;;;;;12.30;11.43;;;15.90;99.90;;;;;;4920667;29;20204;-78
2021/06/23 03:43:46;;;;;;;12.30;11.30;;;15.90;99.90;;;;;;4925987;29;20224;-78
2021/06/23 03:46:14;;;;;;;12.07;11.40;;;15.90;99.90;;;;;;4917010;29;20910;-77
2021/06/23 03:48:43;;;;;;;12.80;11.67;;;15.90;99.90;;;;;;4929435;29;20230;-79
2021/06/23 03:51:15;;;;;;;12.17;11.47;;;15.90;99.90;;;;;;4927590;29;20210;-78
2021/06/23 03:53:43;;;;;;;12.20;11.50;;;15.90;99.90;;;;;;4925829;29;20303;-78
2021/06/23 03:56:10;;;;;;;12.40;11.63;;;15.90;99.90;;;;;;4921514;29;20212;-78
2021/06/23 03:58:37;;;;;;;12.50;11.80;;;16.00;99.90;;;;;;4932336;29;20241;-78
2021/06/23 04:01:04;;;;;;;12.67;11.97;;;16.10;99.90;;;;;;4924893;29;20275;-78
2021/06/23 04:03:40;;;;;;;12.60;11.90;;;16.10;99.90;;;;;;4927338;29;20246;-79
2021/06/23 04:06:28;;;;;;;12.77;12.00;;;16.20;99.90;;;;;;4908681;29;20203;-78
2021/06/23 04:08:55;;;;;;;13.20;12.50;;;16.40;99.90;;;;;;4925962;29;20245;-78
2021/06/23 04:11:22;;;;;;;12.47;11.60;;;16.50;99.90;;;;;;4927674;29;20199;-77
2021/06/23 04:13:49;;;;;;;12.80;11.90;;;16.60;99.90;;;;;;4915115;29;20259;-78
2021/06/23 04:16:16;;;;;;;12.27;11.57;;;16.80;99.90;;;;;;4921918;29;20291;-79
2021/06/23 04:18:44;;;;;;;12.70;12.00;;;16.90;99.90;;;;;;4932769;29;20224;-78
2021/06/23 04:21:13;;;;;;;12.90;12.20;;;17.00;99.90;;;;;;4918256;29;20582;-78
2021/06/23 04:23:40;;;;;;;12.40;11.80;;;17.20;99.90;;;;;;4926499;29;20201;-78
2021/06/23 04:26:08;;;;;;;13.03;12.03;;;17.30;99.90;;;;;;4932924;29;20254;-79
2021/06/23 04:28:34;;;;;;;13.43;12.63;;;17.30;99.90;;;;;;4922033;29;20668;-78
2021/06/23 04:31:01;;;;;;;12.60;11.90;;;17.30;99.90;;;;;;4925732;29;20225;-79
2021/06/23 04:33:29;;;;;;;13.07;12.37;;;17.40;99.90;;;;;;4924646;29;20193;-78
2021/06/23 04:36:06;;;;;;;12.50;11.80;;;17.50;99.90;;;;;;4924910;29;20274;-78
2021/06/23 04:38:34;;;;;;;12.40;11.70;;;17.60;99.90;;;;;;4919599;29;20245;-78
2021/06/23 04:41:02;;;;;;;12.27;11.57;;;17.90;99.90;;;;;;4930217;29;20300;-79
2021/06/23 04:43:33;;;;;;;12.47;11.77;;;18.10;99.90;;;;;;4919323;29;20190;-79
2021/06/23 04:45:59;;;;;;;12.40;11.70;;;18.30;99.90;;;;;;4928891;29;20197;-78
2021/06/23 04:48:26;;;;;;;12.70;11.93;;;18.50;99.90;;;;;;4935068;29;20234;-78
2021/06/23 04:50:56;;;;;;;11.53;10.73;;;18.60;99.90;;;;;;4925727;29;20286;-80
2021/06/23 04:53:29;;;;;;;12.13;11.33;;;19.00;99.90;;;;;;4915506;29;20213;-79
2021/06/23 04:55:58;;;;;;;8.67;8.17;;;19.40;99.90;;;;;;4926113;29;20391;-79
2021/06/23 04:58:28;;;;;;;4.80;4.60;;;19.60;99.90;;;;;;4926596;29;20690;-78
2021/06/23 05:01:02;;;;;;;8.43;7.93;;;19.60;99.90;;;;;;4926254;29;20226;-79
2021/06/23 05:03:35;;;;;;;8.20;7.80;;;19.70;99.90;;;;;;4923177;29;20211;-78
2021/06/23 05:06:02;;;;;;;8.70;8.20;;;19.80;99.90;;;;;;4922933;29;20207;-78
2021/06/23 05:08:31;;;;;;;8.17;7.77;;;19.80;99.90;;;;;;4922691;29;20217;-79
2021/06/23 05:10:58;;;;;;;8.53;7.97;;;20.00;99.90;;;;;;4921424;29;20220;-79
2021/06/23 05:13:26;;;;;;;10.77;10.17;;;20.20;99.90;;;;;;4921635;29;20215;-79
2021/06/23 05:15:55;;;;;;;11.10;10.50;;;20.40;99.90;;;;;;4921487;29;20563;-79
2021/06/23 05:18:21;;;;;;;6.03;5.63;;;20.70;99.90;;;;;;4932953;29;20746;-78
2021/06/23 05:20:48;;;;;;;4.83;4.43;;;20.90;99.90;;;;;;4917964;29;20230;-79
2021/06/23 05:23:15;;;;;;;3.97;3.70;;;21.20;99.90;;;;;;4925564;29;20215;-79
2021/06/23 05:25:43;;;;;;;3.00;2.80;;;21.30;99.90;;;;;;4925141;29;20203;-80
2021/06/23 05:28:10;;;;;;;4.00;3.80;;;21.50;99.90;;;;;;4929812;29;20191;-79
2021/06/23 05:30:37;;;;;;;7.10;6.70;;;21.50;99.90;;;;;;4920214;29;20247;-79
2021/06/23 05:33:04;;;;;;;2.90;2.70;;;21.50;99.90;;;;;;4932246;29;20207;-80
2021/06/23 05:35:31;;;;;;;5.70;5.40;;;21.50;99.90;;;;;;4927504;29;20624;-79
2021/06/23 05:37:58;;;;;;;8.10;7.60;;;21.50;99.90;;;;;;4923439;29;20216;-79
2021/06/23 05:40:24;;;;;;;8.03;7.60;;;21.60;99.90;;;;;;4925707;29;20230;-79
2021/06/23 05:42:53;;;;;;;8.27;7.70;;;22.00;99.90;;;;;;4909728;29;20224;-79
2021/06/23 05:45:19;;;;;;;8.13;7.63;;;22.60;99.90;;;;;;4929266;29;20203;-79
2021/06/23 05:47:46;;;;;;;9.50;9.00;;;22.50;99.90;;;;;;4926319;29;20200;-79
2021/06/23 05:50:13;;;;;;;9.67;8.97;;;22.00;99.90;;;;;;4919029;29;20220;-79
2021/06/23 05:52:40;;;;;;;9.93;9.33;;;21.60;99.90;;;;;;4925539;29;20194;-79
2021/06/23 05:55:08;;;;;;;9.07;8.57;;;21.90;99.90;;;;;;4920072;29;20223;-79
2021/06/23 05:57:35;;;;;;;9.70;9.00;;;22.90;99.90;;;;;;4931861;29;20233;-80
2021/06/23 06:00:05;;;;;;;10.20;9.70;;;23.80;99.90;;;;;;4924215;29;20235;-80
2021/06/23 06:02:40;;;;;;;7.90;7.50;;;24.60;99.90;;;;;;4913325;29;20239;-80
2021/06/23 06:05:08;;;;;;;9.03;8.53;;;24.60;99.90;;;;;;4922035;29;20234;-80
2021/06/23 06:07:35;;;;;;;9.80;9.20;;;25.30;99.90;;;;;;4920107;29;20214;-80
2021/06/23 06:10:02;;;;;;;8.57;7.97;;;25.70;99.90;;;;;;4925023;29;20229;-79
2021/06/23 06:12:29;;;;;;;7.90;7.40;;;26.00;99.90;;;;;;4925692;29;20609;-80
2021/06/23 06:14:55;;;;;;;7.90;7.50;;;26.10;99.90;;;;;;4927402;29;20200;-80
2021/06/23 06:17:24;;;;;;;7.50;7.00;;;26.40;99.90;;;;;;4919037;29;20216;-80
2021/06/23 06:19:50;;;;;;;7.17;6.67;;;26.50;99.90;;;;;;4920265;29;20219;-80
2021/06/23 06:22:17;;;;;;;9.40;8.80;;;26.30;99.90;;;;;;4913072;29;20215;-79
2021/06/23 06:24:44;;;;;;;9.70;9.00;;;26.60;99.90;;;;;;4926834;29;20195;-80
2021/06/23 06:27:11;;;;;;;9.80;9.20;;;26.50;99.90;;;;;;4924610;29;20690;-79
2021/06/23 06:29:38;;;;;;;7.50;7.00;;;26.30;99.90;;;;;;4926246;29;20219;-80
2021/06/23 06:32:06;;;;;;;8.60;8.10;;;26.40;99.90;;;;;;4920315;29;20693;-80
2021/06/23 06:34:34;;;;;;;8.63;8.10;;;26.30;99.90;;;;;;4925699;29;20722;-80
2021/06/23 06:37:01;;;;;;;7.73;7.33;;;26.40;99.90;;;;;;4933646;29;20211;-80
2021/06/23 06:39:27;;;;;;;8.83;8.33;;;26.50;99.90;;;;;;4923684;29;20224;-80
2021/06/23 06:41:54;;;;;;;9.13;8.13;;;26.40;99.90;;;;;;4927508;29;20191;-80
2021/06/23 06:44:22;;;;;;;9.03;8.50;;;26.60;99.90;;;;;;4927046;29;20670;-80
2021/06/23 06:46:49;;;;;;;9.03;8.53;;;26.80;99.90;;;;;;4922143;29;20227;-79
2021/06/23 06:49:16;;;;;;;9.63;8.97;;;27.20;99.90;;;;;;4919313;29;20220;-79
2021/06/23 06:51:44;;;;;;;9.23;8.63;;;27.30;99.90;;;;;;4918008;29;20579;-79
2021/06/23 06:54:10;;;;;;;8.80;8.30;;;27.30;99.90;;;;;;4914381;29;20248;-79
2021/06/23 06:56:37;;;;;;;9.03;8.53;;;27.30;99.90;;;;;;4921924;29;20219;-81
2021/06/23 06:59:04;;;;;;;9.60;8.83;;;27.40;99.90;;;;;;4926094;29;20215;-79
2021/06/23 07:01:31;;;;;;;9.40;8.73;;;26.60;99.90;;;;;;4925179;29;20686;-77
2021/06/23 07:03:58;;;;;;;9.70;9.10;;;26.00;99.90;;;;;;4924272;29;20196;-77
2021/06/23 07:06:24;;;;;;;9.60;8.90;;;25.30;99.90;;;;;;4925089;29;20207;-77
2021/06/23 07:08:53;;;;;;;9.20;8.60;;;25.40;99.90;;;;;;4926228;29;20195;-76
2021/06/23 07:11:21;;;;;;;9.53;8.60;;;26.20;99.90;;;;;;4914265;29;20220;-77
2021/06/23 07:13:47;;;;;;;9.30;8.70;;;26.70;99.90;;;;;;4923646;29;20183;-77
2021/06/23 07:16:14;;;;;;;9.37;8.57;;;27.10;99.90;;;;;;4921581;29;20203;-76
2021/06/23 07:18:42;;;;;;;9.20;8.70;;;27.30;99.90;;;;;;4916115;29;20821;-76
2021/06/23 07:21:09;;;;;;;9.20;8.70;;;27.50;99.90;;;;;;4901928;29;20212;-78
2021/06/23 07:23:36;;;;;;;9.03;8.50;;;27.20;99.90;;;;;;4907892;29;20208;-77
2021/06/23 07:26:04;;;;;;;8.60;8.20;;;26.90;99.90;;;;;;4924045;29;20199;-77
2021/06/23 07:28:40;;;;;;;9.00;8.50;;;26.90;99.90;;;;;;4931511;29;20690;-77
2021/06/23 07:31:08;;;;;;;9.13;8.37;;;26.80;99.90;;;;;;4922421;29;20279;-77
2021/06/23 07:33:36;;;;;;;8.73;8.23;;;27.00;99.90;;;;;;4926923;29;20632;-77
2021/06/23 07:38:48;;;;;;;9.57;8.97;;;27.70;99.90;;;;;;4928752;29;20307;-78
2021/06/23 07:41:16;;;;;;;9.20;8.70;;;27.50;99.90;;;;;;4923134;29;20200;-77
2021/06/23 07:43:43;;;;;;;9.10;8.60;;;27.60;99.90;;;;;;4917534;29;20199;-78
2021/06/23 07:46:11;;;;;;;9.20;8.60;;;27.40;99.90;;;;;;4919852;29;20207;-77
2021/06/23 07:48:39;;;;;;;9.27;8.67;;;27.80;99.90;;;;;;4907918;29;20279;-77
2021/06/23 07:51:10;;;;;;;9.20;8.70;;;28.00;99.90;;;;;;4929036;29;20215;-77
2021/06/23 07:53:54;;;;;;;9.30;8.80;;;28.20;99.90;;;;;;4908699;29;20216;-77
2021/06/23 07:56:27;;;;;;;9.03;8.43;;;27.90;99.90;;;;;;4927904;29;20214;-78
2021/06/23 08:09:54;;;;;;;8.30;7.80;;;27.70;99.90;;;;;;4918067;29;20207;-78
2021/06/23 08:12:27;;;;;;;8.80;8.30;;;27.70;99.90;;;;;;4925836;29;20259;-79
2021/06/23 08:14:54;;;;;;;8.70;8.20;;;28.00;99.90;;;;;;4925810;29;20203;-79
2021/06/23 08:17:21;;;;;;;8.80;8.10;;;28.40;99.90;;;;;;4924846;29;20199;-79
2021/06/23 08:19:48;;;;;;;9.30;8.80;;;28.30;99.90;;;;;;4918085;29;20717;-78
2021/06/23 08:22:14;;;;;;;8.60;8.00;;;28.10;99.90;;;;;;4917940;29;20216;-79
2021/06/23 08:24:41;;;;;;;8.50;8.00;;;28.30;99.90;;;;;;4938248;29;20631;-79
2021/06/23 08:27:09;;;;;;;8.70;8.20;;;28.20;99.90;;;;;;4928169;29;20222;-79
2021/06/23 08:29:37;;;;;;;8.87;8.30;;;28.00;99.90;;;;;;4920883;29;20237;-79
2021/06/23 08:32:06;;;;;;;8.70;8.10;;;27.80;99.90;;;;;;4923700;29;20642;-79
2021/06/23 08:34:33;;;;;;;8.40;7.90;;;27.90;99.90;;;;;;4927098;29;20210;-79
2021/06/23 08:37:00;;;;;;;9.20;8.60;;;27.90;99.90;;;;;;4923181;29;20207;-79
2021/06/23 08:39:26;;;;;;;9.00;8.40;;;28.20;99.90;;;;;;4923495;29;20616;-78
2021/06/23 08:41:53;;;;;;;8.30;7.70;;;28.30;99.90;;;;;;4924447;29;20212;-79
2021/06/23 08:44:23;;;;;;;8.33;7.83;;;28.20;99.90;;;;;;4922860;29;20200;-79
2021/06/23 08:46:52;;;;;;;8.40;7.90;;;28.20;99.90;;;;;;4901231;29;20200;-79
2021/06/23 08:49:19;;;;;;;8.40;7.90;;;28.40;99.90;;;;;;4923744;29;20227;-79
2021/06/23 08:51:46;;;;;;;8.40;7.90;;;27.90;99.90;;;;;;4926569;29;20211;-78
2021/06/23 08:54:13;;;;;;;8.37;7.73;;;28.00;99.90;;;;;;4930916;29;20686;-78
2021/06/23 08:56:40;;;;;;;8.70;8.20;;;28.10;99.90;;;;;;4922922;29;20215;-78
2021/06/23 08:59:07;;;;;;;8.43;7.93;;;28.50;99.90;;;;;;4919784;29;20224;-78
2021/06/23 09:01:35;;;;;;;8.53;8.03;;;28.90;99.90;;;;;;4925230;29;20204;-78
2021/06/23 09:04:05;;;;;;;8.17;7.67;;;29.10;99.90;;;;;;4927008;29;20219;-79
2021/06/23 09:06:47;;;;;;;8.60;7.93;;;29.30;99.90;;;;;;4934645;29;20206;-79
2021/06/23 09:09:19;;;;;;;8.27;7.77;;;29.00;99.90;;;;;;4921577;29;20219;-79
2021/06/23 09:11:47;;;;;;;8.50;7.90;;;29.10;99.90;;;;;;4924770;29;20662;-78
2021/06/23 09:14:15;;;;;;;8.10;7.70;;;29.40;99.90;;;;;;4922556;29;20843;-79
2021/06/23 09:17:07;;;;;;;8.40;7.80;;;29.30;99.90;;;;;;4929501;29;20668;-79
2021/06/23 09:19:38;;;;;;;8.27;7.57;;;29.20;99.90;;;;;;4929928;29;20247;-78
2021/06/23 09:22:26;;;;;;;7.70;7.30;;;28.80;99.90;;;;;;4924927;29;20222;-78
2021/06/23 09:24:52;;;;;;;8.37;7.77;;;28.40;99.90;;;;;;4925941;29;20192;-79
2021/06/23 09:27:21;;;;;;;7.83;7.43;;;28.30;99.90;;;;;;4918102;29;20199;-79
2021/06/23 09:29:50;;;;;;;8.70;8.10;;;28.60;99.90;;;;;;4920674;29;20211;-78
2021/06/23 09:32:18;;;;;;;7.80;7.40;;;28.80;99.90;;;;;;4927910;29;20239;-79
2021/06/23 09:34:48;;;;;;;7.73;7.23;;;28.90;99.90;;;;;;4918539;29;20211;-78
2021/06/23 09:37:28;;;;;;;7.50;7.10;;;29.00;99.90;;;;;;4922414;29;20208;-79
2021/06/23 09:40:13;;;;;;;7.10;6.70;;;29.10;99.90;;;;;;4915023;29;20228;-78
2021/06/23 09:42:41;;;;;;;7.30;6.90;;;29.00;99.90;;;;;;4926500;29;20184;-79
2021/06/23 09:45:10;;;;;;;7.10;6.70;;;29.20;99.90;;;;;;4929842;29;20875;-77
2021/06/23 09:47:38;;;;;;;7.00;6.70;;;29.40;99.90;;;;;;4924710;29;20630;-78
2021/06/23 09:50:07;;;;;;;6.37;6.07;;;29.20;99.90;;;;;;4923752;29;20234;-77
2021/06/23 09:52:36;;;;;;;6.80;6.40;;;28.60;99.90;;;;;;4925232;29;20207;-78
2021/06/23 09:55:07;;;;;;;7.20;6.80;;;28.20;99.90;;;;;;4928004;29;20231;-78
2021/06/23 09:57:39;;;;;;;7.20;6.80;;;28.10;99.90;;;;;;4928005;29;20215;-78
2021/06/23 10:00:09;;;;;;;6.97;6.57;;;27.80;99.90;;;;;;4922035;29;20227;-78
2021/06/23 10:02:39;;;;;;;7.00;6.60;;;27.90;99.90;;;;;;4926341;29;20682;-78
2021/06/23 10:05:29;;;;;;;7.13;6.70;;;27.90;99.90;;;;;;4918440;29;20574;-78
2021/06/23 10:07:56;;;;;;;7.03;6.63;;;28.30;99.90;;;;;;4931636;29;20219;-78
2021/06/23 10:10:42;;;;;;;6.33;6.03;;;28.20;99.90;;;;;;4917962;29;20224;-78
2021/06/23 10:13:11;;;;;;;6.20;5.90;;;28.60;99.90;;;;;;4924609;29;20585;-79
2021/06/23 10:15:37;;;;;;;7.10;6.70;;;28.50;99.90;;;;;;4927114;29;20200;-79
2021/06/23 10:18:05;;;;;;;6.47;6.17;;;28.40;99.90;;;;;;4922596;29;20284;-78
2021/06/23 10:20:34;;;;;;;6.60;6.30;;;28.50;99.90;;;;;;4922719;29;20227;-79
2021/06/23 10:23:05;;;;;;;6.50;6.10;;;28.50;99.90;;;;;;4922179;29;20206;-78
2021/06/23 10:25:32;;;;;;;6.70;6.20;;;28.40;99.90;;;;;;4921903;29;20697;-79
2021/06/23 10:28:00;;;;;;;6.10;5.80;;;28.80;99.90;;;;;;4918854;29;20208;-78
2021/06/23 10:30:29;;;;;;;6.63;6.27;;;28.50;99.90;;;;;;4917201;29;20230;-78
2021/06/23 10:32:58;;;;;;;6.27;5.97;;;28.50;99.90;;;;;;4924012;29;20270;-78
2021/06/23 10:35:25;;;;;;;5.97;5.67;;;28.40;99.90;;;;;;4923710;29;20200;-79
2021/06/23 10:37:54;;;;;;;6.20;5.90;;;28.10;99.90;;;;;;4920076;29;20199;-79
2021/06/23 10:40:21;;;;;;;6.30;6.00;;;27.40;99.90;;;;;;4926509;29;20262;-78
2021/06/23 10:42:49;;;;;;;6.90;6.60;;;27.20;99.90;;;;;;4914783;29;20212;-79
2021/06/23 10:45:16;;;;;;;6.30;6.00;;;27.20;99.90;;;;;;4921439;29;20210;-78
2021/06/23 10:47:45;;;;;;;7.07;6.50;;;27.20;99.90;;;;;;4922568;29;20282;-78
2021/06/23 10:50:30;;;;;;;6.60;6.30;;;27.40;99.90;;;;;;4923140;29;20231;-78
2021/06/23 10:52:59;;;;;;;6.73;6.40;;;27.50;99.90;;;;;;4916104;29;20207;-78
2021/06/23 10:55:44;;;;;;;6.63;6.33;;;27.50;99.90;;;;;;4923418;29;20200;-78
2021/06/23 10:58:12;;;;;;;6.10;5.77;;;27.20;99.90;;;;;;4921903;29;20198;-77
2021/06/23 11:00:44;;;;;;;6.53;6.20;;;27.10;99.90;;;;;;4922669;29;20232;-77
2021/06/23 11:03:13;;;;;;;6.10;5.70;;;27.10;99.90;;;;;;4927200;29;20215;-78
2021/06/23 11:05:46;;;;;;;5.80;5.50;;;27.10;99.90;;;;;;4927152;29;20784;-77
2021/06/23 11:08:25;;;;;;;5.70;5.40;;;27.30;99.90;;;;;;4933017;29;20208;-78
2021/06/23 11:10:53;;;;;;;5.73;5.43;;;27.30;99.90;;;;;;4927174;29;20218;-79
2021/06/23 11:13:21;;;;;;;5.80;5.50;;;27.20;99.90;;;;;;4926914;29;20203;-79
2021/06/23 11:15:50;;;;;;;5.87;5.57;;;27.30;99.90;;;;;;4919961;29;20207;-79
2021/06/23 11:18:30;;;;;;;5.60;5.30;;;27.10;99.90;;;;;;4936543;29;20211;-79
2021/06/23 11:20:59;;;;;;;6.10;5.70;;;27.30;99.90;;;;;;4923387;29;20263;-79
2021/06/23 11:23:52;;;;;;;5.87;5.57;;;26.90;99.90;;;;;;4929225;29;20697;-78
2021/06/23 11:26:58;;;;;;;5.83;5.53;;;26.40;99.90;;;;;;4921190;29;20314;-78
2021/06/23 11:29:28;;;;;;;5.87;5.50;;;26.50;99.90;;;;;;4934463;29;20222;-79
2021/06/23 11:31:59;;;;;;;6.10;5.80;;;26.60;99.90;;;;;;4923767;29;20691;-77
2021/06/23 11:34:53;;;;;;;6.17;5.77;;;26.60;99.90;;;;;;4920819;29;20218;-79
2021/06/23 11:37:21;;;;;;;8.03;5.60;;;26.40;99.90;;;;;;4915270;29;20620;-78
2021/06/23 11:39:50;;;;;;;6.20;5.80;;;26.20;99.90;;;;;;4933060;29;20341;-78
2021/06/23 11:42:19;;;;;;;6.40;6.00;;;26.20;99.90;;;;;;4924154;29;20198;-78
2021/06/23 11:44:45;;;;;;;6.13;5.73;;;26.00;99.90;;;;;;4922182;29;20203;-78
2021/06/23 11:47:12;;;;;;;6.00;5.70;;;26.20;99.90;;;;;;4928816;29;20207;-78
2021/06/23 11:49:40;;;;;;;6.20;5.80;;;26.20;99.90;;;;;;4927051;29;20222;-78
2021/06/23 11:52:08;;;;;;;6.20;5.90;;;26.00;99.90;;;;;;4926232;29;20572;-78
2021/06/23 11:54:36;;;;;;;6.60;6.30;;;25.70;99.90;;;;;;4924924;29;20206;-78
2021/06/23 11:57:05;;;;;;;6.60;6.20;;;25.80;99.90;;;;;;4920927;29;20589;-79
2021/06/23 11:59:33;;;;;;;6.50;6.17;;;25.80;99.90;;;;;;4922518;23;20232;-76
2021/06/23 12:02:00;;;;;;;6.10;5.80;;;25.80;99.90;;;;;;4880142;29;20199;-76
2021/06/23 12:04:28;;;;;;;6.37;6.00;;;26.00;99.90;;;;;;4878853;29;20554;-76
2021/06/23 12:06:55;;;;;;;5.80;5.50;;;26.20;99.90;;;;;;4880076;29;20617;-76
2021/06/23 12:09:22;;;;;;;6.37;5.87;;;26.00;99.90;;;;;;4879674;29;20253;-76
2021/06/23 12:11:49;;;;;;;6.10;5.80;;;26.00;99.90;;;;;;4880134;29;20191;-76
2021/06/23 12:14:17;;;;;;;6.33;5.80;;;26.20;99.90;;;;;;4878724;29;20676;-76
2021/06/23 12:16:44;;;;;;;6.17;5.87;;;26.50;99.90;;;;;;4880060;29;20818;-76
2021/06/23 12:19:11;;;;;;;6.93;6.53;;;26.50;99.90;;;;;;4878651;29;20229;-76
2021/06/23 12:21:38;;;;;;;7.00;6.60;;;26.50;99.90;;;;;;4878485;29;20228;-76
2021/06/23 12:24:06;;;;;;;6.60;6.20;;;26.60;99.90;;;;;;4879715;29;20557;-76
2021/06/23 12:26:33;;;;;;;6.00;5.70;;;26.50;99.90;;;;;;4879509;29;20227;-76
2021/06/23 12:29:00;;;;;;;6.60;6.17;;;26.50;99.90;;;;;;4878392;29;20208;-76
2021/06/23 12:31:28;;;;;;;6.30;5.90;;;26.50;99.90;;;;;;4879572;29;20743;-76
2021/06/23 12:33:55;;;;;;;6.50;6.00;;;26.20;99.90;;;;;;4879331;29;20202;-76
2021/06/23 12:36:22;;;;;;;6.00;5.70;;;26.00;99.90;;;;;;4879556;29;20677;-76
2021/06/23 12:38:49;;;;;;;6.40;6.10;;;26.10;99.90;;;;;;4879389;29;20198;-76
2021/06/23 12:41:15;;;;;;;6.20;5.90;;;26.20;99.90;;;;;;4879529;29;20224;-77
2021/06/23 12:43:42;;;;;;;6.20;5.90;;;26.20;99.90;;;;;;4878005;29;20205;-77
2021/06/23 12:46:10;;;;;;;6.23;5.83;;;26.50;99.90;;;;;;4879571;29;20201;-76
2021/06/23 12:48:39;;;;;;;6.00;5.70;;;26.50;99.90;;;;;;4877930;29;20213;-76
2021/06/23 12:51:07;;;;;;;6.00;5.70;;;26.70;99.90;;;;;;4879317;29;20273;-76
2021/06/23 12:53:34;;;;;;;5.90;5.60;;;27.00;99.90;;;;;;4879201;29;20657;-76
2021/06/23 12:56:01;;;;;;;6.20;5.80;;;27.00;99.90;;;;;;4879263;29;20208;-76
2021/06/23 12:58:27;;;;;;;6.17;5.87;;;27.10;99.90;;;;;;4878942;29;20205;-77
2021/06/23 13:00:54;;;;;;;5.97;5.57;;;27.10;99.90;;;;;;4877543;29;20760;-75
2021/06/23 13:03:21;;;;;;;5.50;5.20;;;27.20;99.90;;;;;;4877868;29;20265;-76
2021/06/23 13:05:49;;;;;;;5.60;5.30;;;27.20;99.90;;;;;;4879002;29;20201;-76
2021/06/23 13:08:16;;;;;;;5.80;5.50;;;27.00;99.90;;;;;;4877730;29;20739;-76